« Back
NWS Peachtree City, Ga » Text Product » MCN Terminal Aerodrome Forecast


Printer-friendly Version
Current Version              Previous Versions:   1  2  3  4  5  6  7  8  9  

Terminal Aerodrome Forecast

707
FTUS42 KFFC 271520 AAB
TAFMCN
TAF AMD
KMCN 271520Z 2715/2812 27009KT P6SM SCT025 BKN035
     FM271800 25007KT P6SM SCT050
     FM280200 25003KT P6SM SCT250=

USA.gov is the U.S. government's official web portal to all federal, state and local government web resources and services.